Terminal Aerodrome Forecast
Issued by NWS

Home | Current Version | Previous Version | Text Only | Print | Product List | Glossary On
Versions: 1 2 3 4 5 6 7 8 9 10 11 12 13 14 15 16 17 18 19 20 21 22 23 24 25 26 27 28 29 30 31 32 33 34 35 36 37 38 39 40 41 42
000
FTUS45 KSLC 010846 AAA
TAFBCE
TAF AMD
KBCE 010846Z 0109/0206 22006KT P6SM VCSH SCT020 BKN040
     FM011800 15010KT 2SM -SN BR SCT007 BKN015
     FM020200 16006KT 1SM -SN BR SCT003 BKN007=

USA.gov is the U.S. government's official web portal to all federal, state and local government web resources and services.